• Join FlightAware (Why Join?)
  • Login
  • US Flag 
12:51PM EST


 

Airport Tracker/Info


-or-


 

Live Flight TrackerFlight Track Log ✈ DAL1921 ✈ 20-Nov-2013 ✈ KDTW - KPHX

Flight Track Log - Related Links

Times and Time Zones

All times are in EST time to prevent confusion due to time zone crossing. See the DAL1921 flight status page for this flight to view local times or setup timezone preferences in your user account.

Time Position Orientation Groundspeed Altitude Reporting Facility
EST Latitude Longitude Course Direction KTS MPH feet Rate Location/Type
08:58AM 42.1972 -83.3742 181° South 174 200 1,600  Level Cleveland Center
08:59AM 42.1492 -83.4239 217° Southwest 226 260 3,800 1,860 Climbing Cleveland Center
09:00AM 42.1408 -83.4356 226° Southwest 213 245 4,300 2,640 Climbing Cleveland Center
09:00AM 42.0942 -83.4836 217° Southwest 260 299 6,500 2,460 Climbing Cleveland Center
09:01AM 42.1428 -83.7957 211° Southwest  Level Estimated
09:01AM 42.0900 -83.4892 225° Southwest 242 278 6,900  Level Cleveland Center
09:02AM 42.1192 -83.9429 209° Southwest  Level Estimated
09:02AM 42.0153 -83.5572 214° Southwest 277 319 9,700  Level Cleveland Center
09:03AM 42.0076 -83.9468 181° South  Level FlightAware Approximate
09:03AM 41.9400 -83.6094 207° Southwest 299 344 11,900  Level Cleveland Center
09:04AM 41.8959 -83.9507 181° South  Level FlightAware Approximate
09:04AM 41.8617 -83.6631 207° Southwest 339 390 13,800  Level Cleveland Center
09:05AM 41.7508 -83.7428 208° Southwest 378 435 15,700 1,980 Climbing Cleveland Center
09:06AM 41.6508 -83.8142 208° Southwest 404 465 17,900 1,740 Climbing Cleveland Center
09:07AM 41.5514 -83.8931 211° Southwest 412 474 19,400 1,620 Climbing Cleveland Center
09:08AM 41.4508 -83.9733 211° Southwest 422 486 21,300 1,680 Climbing Cleveland Center
09:09AM 41.3319 -84.0672 211° Southwest 432 497 23,000 1,500 Climbing Cleveland Center
09:10AM 41.2394 -84.1711 220° Southwest 441 507 24,400 1,260 Climbing Cleveland Center
09:11AM 41.2000 -84.3258 251° West 442 509 25,700 1,200 Climbing Cleveland Center
09:12AM 41.1603 -84.4828 251° West 445 512 26,900 1,380 Climbing Cleveland Center
09:13AM 41.1203 -84.6381 251° West 445 512 28,600 1,560 Climbing Cleveland Center
09:15AM 41.0658 -84.8494 251° West 433 498 30,800 1,320 Climbing Chicago Center
09:16AM 41.0289 -84.9956 252° West 422 486 32,000 1,020 Climbing Chicago Center
09:17AM 40.9756 -85.1686 248° West 422 486 33,000 480 Climbing Chicago Center
09:18AM 40.9078 -85.2961 235° Southwest 423 487 33,100 240 Climbing Chicago Center
09:19AM 40.8889 -85.4500 261° West 426 490 33,600 660 Climbing Chicago Center
09:20AM 40.8731 -85.5994 262° West 415 478 34,500 960 Climbing Chicago Center
09:21AM 40.8583 -85.7514 263° West 415 478 35,600 660 Climbing Chicago Center
09:22AM 40.8428 -85.9006 262° West 413 475 35,900 180 Climbing Chicago Center
09:23AM 40.8269 -86.0511 262° West 413 475 36,000  Climbing Chicago Center
09:24AM 40.8078 -86.2319 262° West 415 478 36,000  Level Chicago Center
09:25AM 40.7919 -86.3817 262° West 413 475 36,000  Level Chicago Center
09:26AM 40.7756 -86.5322 262° West 414 476 36,000  Level Chicago Center
09:27AM 40.7589 -86.6800 262° West 411 473 36,000  Level Chicago Center
09:28AM 40.7422 -86.8261 261° West 405 466 36,000  Level Chicago Center
09:29AM 40.7219 -86.9717 260° West 403 464 36,000  Level Chicago Center
09:30AM 40.6878 -87.1447 255° West 406 467 36,000  Level Chicago Center
09:31AM 40.6606 -87.2900 256° West 407 468 36,000  Level Chicago Center
09:32AM 40.6328 -87.4364 256° West 410 472 36,000  Level Chicago Center
09:33AM 40.6047 -87.5825 256° West 410 472 36,000  Level Chicago Center
09:34AM 40.5769 -87.7297 256° West 414 476 36,000  Level Chicago Center
09:35AM 40.5489 -87.8753 256° West 413 475 36,000  Level Chicago Center
09:36AM 40.5153 -88.0500 256° West 411 473 36,000  Level Chicago Center
09:37AM 40.4861 -88.1953 255° West 411 473 36,000  Level Chicago Center
09:38AM 40.4578 -88.3417 256° West 413 475 36,000  Level Chicago Center
09:39AM 40.4258 -88.5019 255° West 411 473 36,000  Level Chicago Center
09:40AM 40.3972 -88.6469 256° West 411 473 36,000  Level Chicago Center
09:41AM 40.3683 -88.7925 255° West 412 474 36,000  Level Chicago Center
09:43AM 40.3364 -88.9386 254° West 416 479 36,000  Level Chicago Center
09:44AM 40.3078 -89.0842 256° West 414 476 36,000  Level Chicago Center
09:45AM 40.2769 -89.2283 254° West 410 472 36,000  Level Chicago Center
09:46AM 40.2472 -89.3739 255° West 412 474 36,000 -60 Level Chicago Center
09:47AM 40.2103 -89.5464 254° West 411 473 35,900 -60 Descending Chicago Center
09:48AM 40.1803 -89.6892 255° West 408 470 35,900  Level Chicago Center
09:49AM 40.1506 -89.8308 255° West 404 465 36,000  Climbing Chicago Center
09:50AM 40.1192 -89.9722 254° West 403 464 36,000  Level Chicago Center
09:51AM 40.0842 -90.1411 255° West 400 460 36,000 -60 Level Kansas City Center
09:52AM 40.0544 -90.2800 254° West 398 458 35,900  Descending Kansas City Center
09:53AM 40.0242 -90.4153 254° West 393 452 36,000  Climbing Kansas City Center
09:54AM 39.9944 -90.5514 254° West 389 448 36,000  Level Kansas City Center
09:55AM 39.9639 -90.6872 254° West 389 448 36,000  Level Kansas City Center
09:56AM 39.9344 -90.8256 255° West 393 452 36,000  Level Kansas City Center
09:57AM 39.9036 -90.9594 253° West 389 448 36,000  Level Kansas City Center
09:58AM 39.8706 -91.1036 253° West 390 449 36,000  Level Kansas City Center
09:59AM 39.8350 -91.2672 254° West 392 451 36,000 -60 Level Kansas City Center
10:00AM 39.8036 -91.4033 253° West 394 453 35,900 -60 Descending Kansas City Center
10:01AM 39.7717 -91.5392 253° West 395 455 35,900  Level Kansas City Center
10:02AM 39.7403 -91.6744 253° West 394 453 35,900  Level Kansas City Center
10:03AM 39.7083 -91.8083 253° West 392 451 36,000  Climbing Kansas City Center
10:04AM 39.6783 -91.9422 254° West 389 448 35,900  Descending Kansas City Center
10:05AM 39.6406 -92.1028 253° West 388 447 36,000  Climbing Kansas City Center
10:06AM 39.6097 -92.2356 253° West 388 447 36,000  Level Kansas City Center
10:07AM 39.5772 -92.3678 252° West 387 445 36,000  Level Kansas City Center
10:09AM 39.5464 -92.5008 253° West 386 444 36,000 -60 Level Kansas City Center
10:10AM 39.5144 -92.6311 252° West 385 443 35,900  Descending Kansas City Center
10:11AM 39.4819 -92.7628 252° West 384 442 36,000  Climbing Kansas City Center
10:12AM 39.4450 -92.9203 253° West 384 442 36,000 -60 Level Kansas City Center
10:13AM 39.4119 -93.0531 252° West 382 440 35,900 -60 Descending Kansas City Center
10:14AM 39.3789 -93.1789 251° West 382 440 35,900  Level Kansas City Center
10:15AM 39.3472 -93.3100 253° West 384 442 36,000  Climbing Kansas City Center
10:16AM 39.3167 -93.4453 254° West 391 450 35,900 -60 Descending Kansas City Center
10:17AM 39.2753 -93.6028 251° West 389 448 35,900  Level Kansas City Center
10:18AM 39.2433 -93.7289 252° West 390 449 35,900  Level Kansas City Center
10:19AM 39.2061 -93.8747 252° West 384 442 35,900  Level Kansas City Center
10:20AM 39.1794 -94.0014 255° West 375 432 36,000  Climbing Kansas City Center
10:21AM 39.1606 -94.1483 261° West 380 437 36,000 -60 Level Kansas City Center
10:22AM 39.1433 -94.2767 260° West 380 437 35,900  Descending Kansas City Center
10:23AM 39.1253 -94.4067 260° West 384 442 36,000  Climbing Kansas City Center
10:24AM 39.1042 -94.5586 260° West 385 443 36,000  Level Kansas City Center
10:25AM 39.0867 -94.6883 260° West 384 442 36,000  Level Kansas City Center
10:26AM 39.0664 -94.8406 260° West 386 444 36,000  Level Kansas City Center
10:27AM 39.0478 -94.9711 260° West 386 444 36,000  Level Kansas City Center
10:28AM 39.0064 -95.1194 250° West 392 451 36,000 -60 Level Kansas City Center
10:29AM 38.9700 -95.2494 250° West 399 459 35,900 -60 Descending Kansas City Center
10:30AM 38.9347 -95.3808 251° West 402 463 35,900  Level Kansas City Center
10:31AM 38.8917 -95.5319 250° West 402 463 35,900  Level Kansas City Center
10:32AM 38.8547 -95.6611 250° West 401 461 35,900  Level Kansas City Center
10:33AM 38.8119 -95.8103 250° West 398 458 35,900  Level Kansas City Center
10:34AM 38.7753 -95.9392 250° West 402 463 35,900  Level Kansas City Center
10:35AM 38.7319 -96.0906 250° West 405 466 36,000  Climbing Kansas City Center
10:36AM 38.6936 -96.2181 249° West 401 461 35,900 -60 Descending Kansas City Center
10:37AM 38.6508 -96.3664 250° West 398 458 35,900  Level Kansas City Center
10:38AM 38.6139 -96.4936 250° West 399 459 35,900  Level Kansas City Center
10:40AM 38.5703 -96.6397 249° West 395 455 35,900  Level Kansas City Center
10:41AM 38.5333 -96.7642 249° West 392 451 35,900  Level Kansas City Center
10:42AM 38.4947 -96.8922 249° West 394 453 35,900  Level Kansas City Center
10:43AM 38.4572 -97.0211 250° West 390 449 36,000  Climbing Kansas City Center
10:44AM 38.4181 -97.1492 249° West 388 447 36,000 -60 Level Kansas City Center
10:45AM 38.3719 -97.3047 249° West 393 452 35,900 -60 Descending Kansas City Center
10:46AM 38.3331 -97.4336 249° West 392 451 35,900  Level Kansas City Center
10:47AM 38.2928 -97.5664 249° West 393 452 35,900  Level Kansas City Center
10:48AM 38.2550 -97.6908 249° West 391 450 36,000  Climbing Kansas City Center
10:49AM 38.2167 -97.8183 249° West 390 449 35,900  Descending Kansas City Center
10:50AM 38.1692 -97.9711 248° West 391 450 36,000  Climbing Kansas City Center
10:51AM 38.1333 -98.0883 249° West 390 449 35,900 -60 Descending Kansas City Center
10:52AM 38.0908 -98.2272 249° West 393 452 35,900  Level Kansas City Center
10:53AM 38.0492 -98.3542 247° West 393 452 35,900  Level Kansas City Center
10:54AM 38.0103 -98.4808 249° West 387 445 35,900  Level Kansas City Center
10:55AM 37.9628 -98.6328 248° West 387 445 35,900  Level Kansas City Center
10:56AM 37.9222 -98.7603 248° West 390 449 35,900  Level Kansas City Center
10:57AM 37.8817 -98.8869 248° West 389 448 35,900 120 Level Kansas City Center
10:58AM 37.8414 -99.0133 248° West 389 448 36,200 420 Climbing Kansas City Center
10:59AM 37.8011 -99.1378 248° West 385 443 36,800 660 Climbing Kansas City Center
11:00AM 37.7514 -99.2917 248° West 393 452 37,600 540 Climbing Kansas City Center
11:01AM 37.7092 -99.4186 247° West 392 451 38,000 180 Climbing Kansas City Center
11:02AM 37.6658 -99.5544 248° West 385 443 38,000 -60 Level Kansas City Center
11:03AM 37.6256 -99.6747 247° West 387 445 37,900  Descending Kansas City Center
11:04AM 37.5864 -99.7931 247° West 384 442 38,000  Climbing Kansas City Center
11:05AM 37.5403 -99.9311 247° West 383 441 38,000  Level Kansas City Center
11:06AM 37.5019 -100.0514 248° West 384 442 38,000 -60 Level Kansas City Center
11:07AM 37.4550 -100.1900 247° West 384 442 37,900  Descending Kansas City Center
11:08AM 37.4142 -100.3111 247° West 388 447 38,000  Climbing Kansas City Center
11:10AM 37.3669 -100.4497 247° West 387 445 37,900 -60 Descending Kansas City Center
11:11AM 37.3269 -100.5678 247° West 383 441 37,900  Level Kansas City Center
11:12AM 37.2808 -100.7053 247° West 381 438 37,900  Level Kansas City Center
11:13AM 37.2408 -100.8208 247° West 378 435 37,900  Level Kansas City Center
11:14AM 37.2011 -100.9369 247° West 376 433 38,000  Climbing Kansas City Center
11:15AM 37.1553 -101.0708 247° West 373 429 38,000  Level Kansas City Center
11:16AM 37.1161 -101.1856 247° West 373 429 38,000  Level Kansas City Center
11:17AM 37.0697 -101.3181 246° West 371 427 38,000  Level Kansas City Center
11:18AM 37.0308 -101.4319 247° West 371 427 38,000 -60 Level Kansas City Center
11:19AM 36.9839 -101.5636 246° West 371 427 37,900  Descending Kansas City Center
11:20AM 36.9433 -101.6783 246° West 375 432 38,000  Climbing Kansas City Center
11:21AM 36.8964 -101.8125 246° West 375 432 38,000  Level Kansas City Center
11:22AM 36.8706 -101.8889 247° West 376 433 38,000  Level Albuquerque Center
11:23AM 36.8217 -102.0217 245° Southwest 376 433 38,000  Level Albuquerque Center
11:24AM 36.7806 -102.1372 246° West 379 436 38,000 -60 Level Albuquerque Center
11:25AM 36.7397 -102.2556 247° West 382 440 37,900  Descending Albuquerque Center
11:26AM 36.7008 -102.4067 252° West 383 441 38,000  Climbing Albuquerque Center
11:27AM 36.6719 -102.5322 254° West 380 437 37,900  Descending Albuquerque Center
11:28AM 36.6425 -102.6631 254° West 380 437 38,000  Climbing Albuquerque Center
11:29AM 36.6142 -102.7825 254° West 377 434 38,000  Level Albuquerque Center
11:30AM 36.5803 -102.9256 254° West 376 433 38,000  Level Albuquerque Center
11:31AM 36.5503 -103.0503 253° West 375 432 38,000 -60 Level Albuquerque Center
11:32AM 36.5217 -103.1756 254° West 374 430 37,900  Descending Albuquerque Center
11:33AM 36.4914 -103.3011 253° West 376 433 38,000  Climbing Albuquerque Center
11:34AM 36.4608 -103.4281 253° West 379 436 37,900 -60 Descending Albuquerque Center
11:35AM 36.4308 -103.5550 254° West 380 437 37,900  Level Albuquerque Center
11:36AM 36.3997 -103.6819 253° West 381 438 37,900  Level Albuquerque Center
11:37AM 36.3636 -103.8303 253° West 382 440 37,900  Level Albuquerque Center
11:38AM 36.3331 -103.9567 253° West 381 438 37,900  Level Albuquerque Center
11:39AM 36.3025 -104.0794 253° West 376 433 37,900  Level Albuquerque Center
11:40AM 36.2725 -104.1978 253° West 366 421 38,000  Climbing Albuquerque Center
11:41AM 36.2433 -104.3167 253° West 360 414 38,000  Level Albuquerque Center
11:42AM 36.2142 -104.4367 253° West 362 417 38,000  Level Albuquerque Center
11:43AM 36.1781 -104.5753 252° West 362 417 38,000  Level Albuquerque Center
11:44AM 36.1475 -104.6958 253° West 364 419 38,000 -60 Level Albuquerque Center
11:45AM 36.1175 -104.8167 253° West 366 421 37,900  Descending Albuquerque Center
11:47AM 36.0844 -104.9419 252° West 375 432 38,000  Climbing Albuquerque Center
11:48AM 36.0533 -105.0647 253° West 375 432 38,000 -60 Level Albuquerque Center
11:49AM 36.0214 -105.1875 252° West 373 429 37,900 -60 Descending Albuquerque Center
11:50AM 35.9903 -105.3092 252° West 371 427 37,900  Level Albuquerque Center
11:51AM 35.9547 -105.4481 252° West 363 418 38,000  Climbing Albuquerque Center
11:52AM 35.9233 -105.5672 252° West 362 417 37,900 -60 Descending Albuquerque Center
11:53AM 35.8953 -105.6731 252° West 362 417 37,900  Level Albuquerque Center
11:54AM 35.8647 -105.7894 252° West 359 413 38,000  Climbing Albuquerque Center
11:55AM 35.8278 -105.9314 252° West 363 418 37,900  Descending Albuquerque Center
11:56AM 35.7950 -106.0497 251° West 365 420 38,000  Climbing Albuquerque Center
11:57AM 35.7644 -106.1703 253° West 369 425 38,000  Level Albuquerque Center
11:58AM 35.7278 -106.2986 251° West 365 420 38,000  Level Albuquerque Center
11:59AM 35.6933 -106.4283 252° West 370 426 38,000  Level Albuquerque Center
12:00PM 35.6597 -106.5542 252° West 370 426 38,000 -60 Level Albuquerque Center
12:01PM 35.6264 -106.6764 251° West 369 425 37,900 -60 Descending Albuquerque Center
12:02PM 35.5939 -106.7956 251° West 369 425 37,900  Level Albuquerque Center
12:03PM 35.5586 -106.9261 252° West 375 432 38,000  Climbing Albuquerque Center
12:04PM 35.5244 -107.0464 251° West 377 434 37,900 -60 Descending Albuquerque Center
12:05PM 35.4886 -107.1781 252° West 379 436 37,900  Level Albuquerque Center
12:06PM 35.4581 -107.2925 252° West 382 440 38,000  Climbing Albuquerque Center
12:07PM 35.4181 -107.4325 251° West 388 447 37,900 -540 Descending Albuquerque Center
12:08PM 35.3847 -107.5519 251° West 387 445 37,000 -960 Descending Albuquerque Center
12:09PM 35.3447 -107.6922 251° West 389 448 36,000 -540 Descending Albuquerque Center
12:10PM 35.3103 -107.8119 251° West 389 448 36,000  Level Albuquerque Center
12:11PM 35.2722 -107.9436 251° West 375 432 36,000 -480 Level Albuquerque Center
12:12PM 35.2406 -108.0586 251° West 371 427 35,100 -840 Descending Albuquerque Center
12:13PM 35.2067 -108.1789 251° West 382 440 34,300 -960 Descending Albuquerque Center
12:14PM 35.1642 -108.3256 251° West 399 459 33,200 -960 Descending Albuquerque Center
12:15PM 35.1269 -108.4544 251° West 413 475 32,300 -660 Descending Albuquerque Center
12:16PM 35.0842 -108.6036 251° West 416 479 31,900 -180 Descending Albuquerque Center
12:18PM 35.0467 -108.7300 250° West 414 476 32,000  Climbing Albuquerque Center
12:19PM 35.0017 -108.8772 250° West 414 476 32,000  Level Albuquerque Center
12:20PM 34.9650 -109.0028 250° West 412 474 32,000 -60 Level Albuquerque Center
12:21PM 34.9211 -109.1517 250° West 415 478 31,900 -60 Descending Albuquerque Center
12:22PM 34.8839 -109.2761 250° West 412 474 31,900  Level Albuquerque Center
12:23PM 34.8472 -109.3989 250° West 407 468 31,900  Level Albuquerque Center
12:24PM 34.8044 -109.5411 250° West 403 464 32,000  Climbing Albuquerque Center
12:25PM 34.7683 -109.6611 250° West 398 458 31,900 -60 Descending Albuquerque Center
12:26PM 34.7253 -109.8006 249° West 396 456 31,900  Level Albuquerque Center
12:27PM 34.6869 -109.9189 249° West 393 452 32,000  Climbing Albuquerque Center
12:28PM 34.6358 -110.0525 245° Southwest 391 450 32,000  Level Albuquerque Center
12:29PM 34.5953 -110.1694 247° West 392 451 32,000  Level Albuquerque Center
12:30PM 34.5469 -110.3022 246° West 388 447 32,000 -60 Level Albuquerque Center
12:31PM 34.5000 -110.4161 243° Southwest 379 436 31,900 -60 Descending Albuquerque Center
12:32PM 34.4611 -110.5322 248° West 377 434 31,900 -540 Level Albuquerque Center
12:33PM 34.4172 -110.6447 245° Southwest 364 419 30,800 -1,500 Descending Albuquerque Center
12:34PM 34.3761 -110.7461 244° Southwest 352 405 28,800 -1,440 Descending Albuquerque Center
12:35PM 34.3175 -110.8444 234° Southwest 359 413 27,900 -1,440 Descending Albuquerque Center
12:36PM 34.2497 -110.9308 227° Southwest 357 411 25,900 -2,160 Descending Albuquerque Center
12:37PM 34.1714 -111.0336 227° Southwest 349 402 23,600 -2,040 Descending Albuquerque Center
12:38PM 34.1064 -111.1153 226° Southwest 341 392 21,700 -2,040 Descending Albuquerque Center
12:39PM 34.0444 -111.1956 227° Southwest 332 382 19,400 -1,980 Descending Albuquerque Center
12:40PM 33.9825 -111.2758 227° Southwest 328 377 17,700 -1,740 Descending Albuquerque Center
12:41PM 33.9225 -111.3539 227° Southwest 319 367 15,800 -1,620 Descending Albuquerque Center
12:42PM 33.8636 -111.4319 228° Southwest 314 361 14,400 -900 Descending Albuquerque Center
12:43PM 33.8114 -111.4994 227° Southwest 277 319 14,000 -780 Descending Albuquerque Center
12:44PM 33.7578 -111.5692 227° Southwest 238 274 12,900 -1,140 Descending Albuquerque Center
12:45PM 33.7150 -111.6253 228° Southwest 228 262 11,700 -1,260 Descending Albuquerque Center
12:46PM 33.6742 -111.6825 229° Southwest 224 258 10,300 -1,200 Descending Albuquerque Center
12:48PM 33.6325 -111.7419 230° Southwest 230 265 9,200 -1,080 Descending Albuquerque Center
12:49PM 33.5906 -111.8031 231° Southwest 227 261 8,100 -780 Descending Albuquerque Center
12:50PM 33.5611 -111.8656 241° Southwest 229 264 7,700 -540 Descending Albuquerque Center
12:51PM 33.5147 -111.8425 157° South 234 269 7,000 -780 Descending Albuquerque Center
12:52PM 33.5039 -111.7686 100° East 205 236 6,200 -1,020 Descending Albuquerque Center
12:53PM 33.4719 -111.8042 223° Southwest 173 199 4,900 -1,260 Descending Albuquerque Center
12:54PM 33.4489 -111.8603 244° Southwest 174 200 3,700 -1,320 Descending Albuquerque Center
12:55PM 33.4333 -111.9000 245° Southwest 169 194 2,500 -1,140 Descending Phoenix TRACON
12:56PM 33.4333 -111.9667 270° West 164 189 1,700 -840 Descending Phoenix TRACON